sensor_id;sensor_type;location;lat;lon;timestamp;P1;durP1;ratioP1;P2;durP2;ratioP2
67074;SDS011;53990;50.334;18.640;2023-03-19T00:00:36;75.60;;;37.30;;
67074;SDS011;53990;50.334;18.640;2023-03-19T00:03:23;73.10;;;37.30;;
67074;SDS011;53990;50.334;18.640;2023-03-19T00:05:52;71.10;;;37.10;;
67074;SDS011;53990;50.334;18.640;2023-03-19T00:08:19;77.50;;;39.00;;
67074;SDS011;53990;50.334;18.640;2023-03-19T00:10:47;72.00;;;37.90;;
67074;SDS011;53990;50.334;18.640;2023-03-19T00:13:14;72.90;;;37.10;;
67074;SDS011;53990;50.334;18.640;2023-03-19T00:15:42;73.00;;;38.30;;
67074;SDS011;53990;50.334;18.640;2023-03-19T00:18:09;73.00;;;37.20;;
67074;SDS011;53990;50.334;18.640;2023-03-19T00:20:36;73.90;;;37.30;;
67074;SDS011;53990;50.334;18.640;2023-03-19T00:23:04;69.80;;;36.90;;
67074;SDS011;53990;50.334;18.640;2023-03-19T00:25:32;65.40;;;36.30;;
67074;SDS011;53990;50.334;18.640;2023-03-19T00:27:59;68.30;;;36.10;;
67074;SDS011;53990;50.334;18.640;2023-03-19T00:30:27;71.20;;;35.40;;
67074;SDS011;53990;50.334;18.640;2023-03-19T00:32:55;71.90;;;36.90;;
67074;SDS011;53990;50.334;18.640;2023-03-19T00:35:23;68.00;;;35.00;;
67074;SDS011;53990;50.334;18.640;2023-03-19T00:37:50;66.70;;;35.50;;
67074;SDS011;53990;50.334;18.640;2023-03-19T00:40:17;72.60;;;35.70;;
67074;SDS011;53990;50.334;18.640;2023-03-19T00:42:44;69.90;;;34.60;;
67074;SDS011;53990;50.334;18.640;2023-03-19T00:45:12;70.20;;;34.60;;
67074;SDS011;53990;50.334;18.640;2023-03-19T00:47:39;68.00;;;36.80;;
67074;SDS011;53990;50.334;18.640;2023-03-19T00:50:07;72.00;;;35.40;;
67074;SDS011;53990;50.334;18.640;2023-03-19T00:52:35;63.20;;;34.90;;
67074;SDS011;53990;50.334;18.640;2023-03-19T00:55:02;63.70;;;34.60;;
67074;SDS011;53990;50.334;18.640;2023-03-19T00:57:30;61.00;;;34.70;;
67074;SDS011;53990;50.334;18.640;2023-03-19T00:59:57;66.60;;;33.50;;
67074;SDS011;53990;50.334;18.640;2023-03-19T01:02:24;67.50;;;34.90;;
67074;SDS011;53990;50.334;18.640;2023-03-19T01:04:52;69.80;;;35.90;;
67074;SDS011;53990;50.334;18.640;2023-03-19T01:07:19;68.20;;;34.40;;
67074;SDS011;53990;50.334;18.640;2023-03-19T01:09:47;66.90;;;33.80;;
67074;SDS011;53990;50.334;18.640;2023-03-19T01:12:14;64.80;;;33.30;;
67074;SDS011;53990;50.334;18.640;2023-03-19T01:14:41;59.70;;;33.30;;
67074;SDS011;53990;50.334;18.640;2023-03-19T01:17:09;64.80;;;33.10;;
67074;SDS011;53990;50.334;18.640;2023-03-19T01:19:36;55.30;;;29.20;;
67074;SDS011;53990;50.334;18.640;2023-03-19T01:22:03;61.10;;;31.70;;
67074;SDS011;53990;50.334;18.640;2023-03-19T01:24:31;61.50;;;32.70;;
67074;SDS011;53990;50.334;18.640;2023-03-19T01:26:58;57.50;;;31.20;;
67074;SDS011;53990;50.334;18.640;2023-03-19T01:29:25;59.80;;;32.20;;
67074;SDS011;53990;50.334;18.640;2023-03-19T01:31:52;58.40;;;30.50;;
67074;SDS011;53990;50.334;18.640;2023-03-19T01:34:20;55.10;;;31.70;;
67074;SDS011;53990;50.334;18.640;2023-03-19T01:36:47;60.00;;;31.10;;
67074;SDS011;53990;50.334;18.640;2023-03-19T01:39:15;57.30;;;30.80;;
67074;SDS011;53990;50.334;18.640;2023-03-19T01:41:42;57.20;;;29.30;;
67074;SDS011;53990;50.334;18.640;2023-03-19T01:44:30;58.80;;;29.00;;
67074;SDS011;53990;50.334;18.640;2023-03-19T01:46:58;57.30;;;28.30;;
67074;SDS011;53990;50.334;18.640;2023-03-19T01:49:26;52.70;;;28.80;;
67074;SDS011;53990;50.334;18.640;2023-03-19T01:51:55;54.00;;;27.40;;
67074;SDS011;53990;50.334;18.640;2023-03-19T01:54:24;52.20;;;27.10;;
67074;SDS011;53990;50.334;18.640;2023-03-19T01:57:06;50.00;;;27.30;;
67074;SDS011;53990;50.334;18.640;2023-03-19T01:59:43;50.40;;;26.60;;
67074;SDS011;53990;50.334;18.640;2023-03-19T02:02:29;49.60;;;26.10;;
67074;SDS011;53990;50.334;18.640;2023-03-19T02:05:07;46.40;;;25.20;;
67074;SDS011;53990;50.334;18.640;2023-03-19T02:07:37;50.30;;;25.70;;
67074;SDS011;53990;50.334;18.640;2023-03-19T02:10:07;49.70;;;26.00;;
67074;SDS011;53990;50.334;18.640;2023-03-19T02:12:35;50.20;;;25.70;;
67074;SDS011;53990;50.334;18.640;2023-03-19T02:15:03;44.50;;;23.80;;
67074;SDS011;53990;50.334;18.640;2023-03-19T02:17:31;46.70;;;24.50;;
67074;SDS011;53990;50.334;18.640;2023-03-19T02:26:11;48.20;;;26.00;;
67074;SDS011;53990;50.334;18.640;2023-03-19T02:28:41;42.60;;;23.20;;
67074;SDS011;53990;50.334;18.640;2023-03-19T02:31:11;48.00;;;25.60;;
67074;SDS011;53990;50.334;18.640;2023-03-19T02:33:39;45.40;;;24.30;;
67074;SDS011;53990;50.334;18.640;2023-03-19T02:36:14;43.50;;;22.50;;
67074;SDS011;53990;50.334;18.640;2023-03-19T02:38:44;45.90;;;24.40;;
67074;SDS011;53990;50.334;18.640;2023-03-19T02:41:12;43.20;;;23.50;;
67074;SDS011;53990;50.334;18.640;2023-03-19T02:43:40;43.60;;;23.90;;
67074;SDS011;53990;50.334;18.640;2023-03-19T02:46:11;41.90;;;23.20;;
67074;SDS011;53990;50.334;18.640;2023-03-19T02:48:38;46.10;;;24.00;;
67074;SDS011;53990;50.334;18.640;2023-03-19T02:51:07;47.10;;;23.80;;
67074;SDS011;53990;50.334;18.640;2023-03-19T02:53:35;42.40;;;24.00;;
67074;SDS011;53990;50.334;18.640;2023-03-19T02:56:02;42.30;;;23.20;;
67074;SDS011;53990;50.334;18.640;2023-03-19T02:58:29;47.10;;;25.10;;
67074;SDS011;53990;50.334;18.640;2023-03-19T03:00:57;45.40;;;23.50;;
67074;SDS011;53990;50.334;18.640;2023-03-19T03:03:24;48.10;;;24.70;;
67074;SDS011;53990;50.334;18.640;2023-03-19T03:05:51;43.40;;;24.60;;
67074;SDS011;53990;50.334;18.640;2023-03-19T03:08:19;45.20;;;23.10;;
67074;SDS011;53990;50.334;18.640;2023-03-19T03:10:46;44.10;;;24.00;;
67074;SDS011;53990;50.334;18.640;2023-03-19T03:13:14;42.90;;;23.20;;
67074;SDS011;53990;50.334;18.640;2023-03-19T03:15:41;42.80;;;22.40;;
67074;SDS011;53990;50.334;18.640;2023-03-19T03:18:08;44.60;;;23.70;;
67074;SDS011;53990;50.334;18.640;2023-03-19T03:20:36;47.10;;;23.50;;
67074;SDS011;53990;50.334;18.640;2023-03-19T03:23:03;45.90;;;24.30;;
67074;SDS011;53990;50.334;18.640;2023-03-19T03:25:31;43.70;;;23.90;;
67074;SDS011;53990;50.334;18.640;2023-03-19T03:27:58;43.90;;;24.10;;
67074;SDS011;53990;50.334;18.640;2023-03-19T03:30:25;45.40;;;24.10;;
67074;SDS011;53990;50.334;18.640;2023-03-19T03:32:53;41.20;;;22.60;;
67074;SDS011;53990;50.334;18.640;2023-03-19T03:35:20;42.20;;;22.80;;
67074;SDS011;53990;50.334;18.640;2023-03-19T03:37:49;45.20;;;23.20;;
67074;SDS011;53990;50.334;18.640;2023-03-19T03:40:17;42.80;;;23.50;;
67074;SDS011;53990;50.334;18.640;2023-03-19T03:42:44;42.00;;;23.10;;
67074;SDS011;53990;50.334;18.640;2023-03-19T03:45:12;43.50;;;23.40;;
67074;SDS011;53990;50.334;18.640;2023-03-19T03:47:40;42.10;;;23.00;;
67074;SDS011;53990;50.334;18.640;2023-03-19T03:50:08;43.30;;;23.50;;
67074;SDS011;53990;50.334;18.640;2023-03-19T03:52:37;43.40;;;22.80;;
67074;SDS011;53990;50.334;18.640;2023-03-19T03:55:05;43.00;;;23.90;;
67074;SDS011;53990;50.334;18.640;2023-03-19T03:57:33;40.70;;;23.70;;
67074;SDS011;53990;50.334;18.640;2023-03-19T04:00:01;41.40;;;24.20;;
67074;SDS011;53990;50.334;18.640;2023-03-19T04:02:28;46.00;;;23.70;;
67074;SDS011;53990;50.334;18.640;2023-03-19T04:04:55;39.00;;;23.10;;
67074;SDS011;53990;50.334;18.640;2023-03-19T04:07:23;41.70;;;23.40;;
67074;SDS011;53990;50.334;18.640;2023-03-19T04:09:50;40.20;;;22.90;;
67074;SDS011;53990;50.334;18.640;2023-03-19T04:12:17;43.40;;;23.10;;
67074;SDS011;53990;50.334;18.640;2023-03-19T04:14:44;42.10;;;24.00;;
67074;SDS011;53990;50.334;18.640;2023-03-19T04:17:12;40.30;;;22.80;;
67074;SDS011;53990;50.334;18.640;2023-03-19T04:19:39;46.20;;;24.30;;
67074;SDS011;53990;50.334;18.640;2023-03-19T04:22:07;39.20;;;21.20;;
67074;SDS011;53990;50.334;18.640;2023-03-19T04:24:34;42.70;;;22.00;;
67074;SDS011;53990;50.334;18.640;2023-03-19T04:27:01;37.80;;;21.90;;
67074;SDS011;53990;50.334;18.640;2023-03-19T04:29:29;43.10;;;21.80;;
67074;SDS011;53990;50.334;18.640;2023-03-19T04:31:56;40.10;;;21.60;;
67074;SDS011;53990;50.334;18.640;2023-03-19T04:34:23;39.50;;;22.60;;
67074;SDS011;53990;50.334;18.640;2023-03-19T04:36:51;36.30;;;20.60;;
67074;SDS011;53990;50.334;18.640;2023-03-19T04:39:18;40.10;;;21.10;;
67074;SDS011;53990;50.334;18.640;2023-03-19T04:41:46;37.80;;;20.20;;
67074;SDS011;53990;50.334;18.640;2023-03-19T04:44:13;38.00;;;20.40;;
67074;SDS011;53990;50.334;18.640;2023-03-19T04:46:40;35.30;;;20.20;;
67074;SDS011;53990;50.334;18.640;2023-03-19T04:49:11;35.10;;;18.90;;
67074;SDS011;53990;50.334;18.640;2023-03-19T04:51:39;31.70;;;18.70;;
67074;SDS011;53990;50.334;18.640;2023-03-19T04:54:06;32.60;;;19.30;;
67074;SDS011;53990;50.334;18.640;2023-03-19T04:56:34;32.40;;;18.70;;
67074;SDS011;53990;50.334;18.640;2023-03-19T04:59:01;36.80;;;20.50;;
67074;SDS011;53990;50.334;18.640;2023-03-19T05:01:28;36.00;;;19.50;;
67074;SDS011;53990;50.334;18.640;2023-03-19T05:03:56;33.50;;;18.60;;
67074;SDS011;53990;50.334;18.640;2023-03-19T05:06:23;36.80;;;19.70;;
67074;SDS011;53990;50.334;18.640;2023-03-19T05:08:51;34.40;;;18.20;;
67074;SDS011;53990;50.334;18.640;2023-03-19T05:11:18;30.00;;;17.70;;
67074;SDS011;53990;50.334;18.640;2023-03-19T05:13:45;32.70;;;18.70;;
67074;SDS011;53990;50.334;18.640;2023-03-19T05:16:12;39.20;;;20.30;;
67074;SDS011;53990;50.334;18.640;2023-03-19T05:18:39;32.70;;;18.40;;
67074;SDS011;53990;50.334;18.640;2023-03-19T05:21:10;33.80;;;17.80;;
67074;SDS011;53990;50.334;18.640;2023-03-19T05:23:38;31.70;;;16.70;;
67074;SDS011;53990;50.334;18.640;2023-03-19T05:26:06;35.30;;;18.50;;
67074;SDS011;53990;50.334;18.640;2023-03-19T05:28:33;30.90;;;17.70;;
67074;SDS011;53990;50.334;18.640;2023-03-19T05:31:02;31.30;;;16.80;;
67074;SDS011;53990;50.334;18.640;2023-03-19T05:33:29;34.10;;;18.80;;
67074;SDS011;53990;50.334;18.640;2023-03-19T05:35:58;32.60;;;18.60;;
67074;SDS011;53990;50.334;18.640;2023-03-19T05:38:25;30.30;;;18.30;;
67074;SDS011;53990;50.334;18.640;2023-03-19T05:40:52;32.20;;;18.50;;
67074;SDS011;53990;50.334;18.640;2023-03-19T05:43:20;35.00;;;19.10;;
67074;SDS011;53990;50.334;18.640;2023-03-19T05:45:50;30.40;;;18.00;;
67074;SDS011;53990;50.334;18.640;2023-03-19T05:48:21;34.20;;;18.70;;
67074;SDS011;53990;50.334;18.640;2023-03-19T05:50:49;35.70;;;18.20;;
67074;SDS011;53990;50.334;18.640;2023-03-19T05:53:16;32.40;;;17.70;;
67074;SDS011;53990;50.334;18.640;2023-03-19T05:55:44;31.40;;;18.20;;
67074;SDS011;53990;50.334;18.640;2023-03-19T05:58:11;32.30;;;18.20;;
67074;SDS011;53990;50.334;18.640;2023-03-19T06:00:38;32.70;;;18.10;;
67074;SDS011;53990;50.334;18.640;2023-03-19T06:03:05;34.00;;;18.70;;
67074;SDS011;53990;50.334;18.640;2023-03-19T06:05:33;30.60;;;18.00;;
67074;SDS011;53990;50.334;18.640;2023-03-19T06:08:01;36.10;;;18.80;;
67074;SDS011;53990;50.334;18.640;2023-03-19T06:10:28;48.60;;;27.00;;
67074;SDS011;53990;50.334;18.640;2023-03-19T06:12:55;49.20;;;25.40;;
67074;SDS011;53990;50.334;18.640;2023-03-19T06:15:23;40.80;;;24.60;;
67074;SDS011;53990;50.334;18.640;2023-03-19T06:17:50;37.40;;;20.70;;
67074;SDS011;53990;50.334;18.640;2023-03-19T06:20:17;34.70;;;21.80;;
67074;SDS011;53990;50.334;18.640;2023-03-19T06:22:45;39.80;;;22.50;;
67074;SDS011;53990;50.334;18.640;2023-03-19T06:25:12;42.30;;;22.30;;
67074;SDS011;53990;50.334;18.640;2023-03-19T06:27:40;44.40;;;24.70;;
67074;SDS011;53990;50.334;18.640;2023-03-19T06:30:07;36.40;;;21.70;;
67074;SDS011;53990;50.334;18.640;2023-03-19T06:32:35;33.40;;;19.80;;
67074;SDS011;53990;50.334;18.640;2023-03-19T06:35:03;34.60;;;19.80;;
67074;SDS011;53990;50.334;18.640;2023-03-19T06:37:31;36.00;;;21.20;;
67074;SDS011;53990;50.334;18.640;2023-03-19T06:39:59;41.00;;;24.10;;
67074;SDS011;53990;50.334;18.640;2023-03-19T06:42:26;38.20;;;21.30;;
67074;SDS011;53990;50.334;18.640;2023-03-19T06:44:53;32.20;;;20.50;;
67074;SDS011;53990;50.334;18.640;2023-03-19T06:47:21;32.10;;;19.30;;
67074;SDS011;53990;50.334;18.640;2023-03-19T06:49:48;34.80;;;21.00;;
67074;SDS011;53990;50.334;18.640;2023-03-19T06:52:16;33.80;;;20.60;;
67074;SDS011;53990;50.334;18.640;2023-03-19T06:54:43;36.70;;;20.60;;
67074;SDS011;53990;50.334;18.640;2023-03-19T06:57:11;40.20;;;23.20;;
67074;SDS011;53990;50.334;18.640;2023-03-19T06:59:38;39.70;;;22.10;;
67074;SDS011;53990;50.334;18.640;2023-03-19T07:02:07;39.60;;;22.70;;
67074;SDS011;53990;50.334;18.640;2023-03-19T07:04:35;43.00;;;24.40;;
67074;SDS011;53990;50.334;18.640;2023-03-19T07:07:03;39.90;;;23.20;;
67074;SDS011;53990;50.334;18.640;2023-03-19T07:09:31;42.20;;;25.40;;
67074;SDS011;53990;50.334;18.640;2023-03-19T07:11:59;41.50;;;24.90;;
67074;SDS011;53990;50.334;18.640;2023-03-19T07:14:27;35.50;;;22.60;;
67074;SDS011;53990;50.334;18.640;2023-03-19T07:16:54;35.30;;;21.70;;
67074;SDS011;53990;50.334;18.640;2023-03-19T07:19:21;40.20;;;21.80;;
67074;SDS011;53990;50.334;18.640;2023-03-19T07:21:49;33.60;;;20.90;;
67074;SDS011;53990;50.334;18.640;2023-03-19T07:24:16;35.90;;;21.60;;
67074;SDS011;53990;50.334;18.640;2023-03-19T07:26:44;32.10;;;20.70;;
67074;SDS011;53990;50.334;18.640;2023-03-19T07:29:12;34.40;;;20.40;;
67074;SDS011;53990;50.334;18.640;2023-03-19T07:31:40;31.50;;;19.60;;
67074;SDS011;53990;50.334;18.640;2023-03-19T07:34:08;35.90;;;21.90;;
67074;SDS011;53990;50.334;18.640;2023-03-19T07:36:35;34.50;;;19.40;;
67074;SDS011;53990;50.334;18.640;2023-03-19T07:39:03;30.20;;;19.70;;
67074;SDS011;53990;50.334;18.640;2023-03-19T07:41:30;25.00;;;16.30;;
67074;SDS011;53990;50.334;18.640;2023-03-19T07:43:58;22.00;;;14.50;;
67074;SDS011;53990;50.334;18.640;2023-03-19T07:46:25;26.30;;;16.10;;
67074;SDS011;53990;50.334;18.640;2023-03-19T07:48:53;25.10;;;15.30;;
67074;SDS011;53990;50.334;18.640;2023-03-19T07:51:20;21.20;;;14.10;;
67074;SDS011;53990;50.334;18.640;2023-03-19T07:53:48;23.60;;;15.10;;
67074;SDS011;53990;50.334;18.640;2023-03-19T07:56:15;26.70;;;16.20;;
67074;SDS011;53990;50.334;18.640;2023-03-19T07:58:43;24.10;;;15.00;;
67074;SDS011;53990;50.334;18.640;2023-03-19T08:01:10;22.80;;;14.30;;
67074;SDS011;53990;50.334;18.640;2023-03-19T08:03:38;22.40;;;14.70;;
67074;SDS011;53990;50.334;18.640;2023-03-19T08:06:05;21.50;;;13.90;;
67074;SDS011;53990;50.334;18.640;2023-03-19T08:08:32;22.50;;;14.90;;
67074;SDS011;53990;50.334;18.640;2023-03-19T08:11:01;21.60;;;14.40;;
67074;SDS011;53990;50.334;18.640;2023-03-19T08:13:29;21.80;;;14.30;;
67074;SDS011;53990;50.334;18.640;2023-03-19T08:15:57;19.70;;;13.30;;
67074;SDS011;53990;50.334;18.640;2023-03-19T08:18:25;21.70;;;13.90;;
67074;SDS011;53990;50.334;18.640;2023-03-19T08:20:53;19.80;;;13.40;;
67074;SDS011;53990;50.334;18.640;2023-03-19T08:23:20;20.60;;;13.50;;
67074;SDS011;53990;50.334;18.640;2023-03-19T08:25:48;21.70;;;13.90;;
67074;SDS011;53990;50.334;18.640;2023-03-19T08:28:18;17.90;;;12.40;;
67074;SDS011;53990;50.334;18.640;2023-03-19T08:30:49;22.40;;;13.70;;
67074;SDS011;53990;50.334;18.640;2023-03-19T08:33:20;22.50;;;13.40;;
67074;SDS011;53990;50.334;18.640;2023-03-19T08:35:47;20.00;;;13.20;;
67074;SDS011;53990;50.334;18.640;2023-03-19T08:38:15;19.60;;;12.90;;
67074;SDS011;53990;50.334;18.640;2023-03-19T08:40:42;19.10;;;12.50;;
67074;SDS011;53990;50.334;18.640;2023-03-19T08:43:10;20.10;;;13.30;;
67074;SDS011;53990;50.334;18.640;2023-03-19T08:45:37;23.50;;;13.40;;
67074;SDS011;53990;50.334;18.640;2023-03-19T08:48:04;19.60;;;12.50;;
67074;SDS011;53990;50.334;18.640;2023-03-19T08:50:32;21.40;;;13.10;;
67074;SDS011;53990;50.334;18.640;2023-03-19T08:52:59;21.30;;;13.60;;
67074;SDS011;53990;50.334;18.640;2023-03-19T08:55:27;20.60;;;13.60;;
67074;SDS011;53990;50.334;18.640;2023-03-19T08:57:54;21.70;;;13.90;;
67074;SDS011;53990;50.334;18.640;2023-03-19T09:00:22;19.50;;;13.00;;
67074;SDS011;53990;50.334;18.640;2023-03-19T09:02:49;20.20;;;12.40;;
67074;SDS011;53990;50.334;18.640;2023-03-19T09:05:17;19.50;;;13.00;;
67074;SDS011;53990;50.334;18.640;2023-03-19T09:07:49;16.60;;;11.00;;
67074;SDS011;53990;50.334;18.640;2023-03-19T09:10:17;18.10;;;11.40;;
67074;SDS011;53990;50.334;18.640;2023-03-19T09:12:44;17.00;;;11.20;;
67074;SDS011;53990;50.334;18.640;2023-03-19T09:15:12;18.70;;;12.20;;
67074;SDS011;53990;50.334;18.640;2023-03-19T09:17:39;17.80;;;11.00;;
67074;SDS011;53990;50.334;18.640;2023-03-19T09:20:08;18.80;;;12.30;;
67074;SDS011;53990;50.334;18.640;2023-03-19T09:22:35;19.00;;;12.10;;
67074;SDS011;53990;50.334;18.640;2023-03-19T09:25:03;17.30;;;11.30;;
67074;SDS011;53990;50.334;18.640;2023-03-19T09:27:31;17.50;;;11.00;;
67074;SDS011;53990;50.334;18.640;2023-03-19T09:29:58;18.00;;;11.20;;
67074;SDS011;53990;50.334;18.640;2023-03-19T09:32:25;18.90;;;12.10;;
67074;SDS011;53990;50.334;18.640;2023-03-19T09:34:53;18.50;;;12.60;;
67074;SDS011;53990;50.334;18.640;2023-03-19T09:37:20;18.50;;;12.00;;
67074;SDS011;53990;50.334;18.640;2023-03-19T09:39:47;16.40;;;11.40;;
67074;SDS011;53990;50.334;18.640;2023-03-19T09:45:17;16.50;;;11.30;;
67074;SDS011;53990;50.334;18.640;2023-03-19T09:47:48;16.70;;;10.90;;
67074;SDS011;53990;50.334;18.640;2023-03-19T09:50:22;18.10;;;11.30;;
67074;SDS011;53990;50.334;18.640;2023-03-19T09:55:46;13.70;;;9.80;;
67074;SDS011;53990;50.334;18.640;2023-03-19T09:58:17;17.10;;;9.80;;
67074;SDS011;53990;50.334;18.640;2023-03-19T10:00:50;14.70;;;9.30;;
67074;SDS011;53990;50.334;18.640;2023-03-19T10:06:27;12.80;;;9.30;;
67074;SDS011;53990;50.334;18.640;2023-03-19T10:09:21;14.80;;;9.10;;
67074;SDS011;53990;50.334;18.640;2023-03-19T10:17:18;12.40;;;9.00;;
67074;SDS011;53990;50.334;18.640;2023-03-19T10:23:46;13.40;;;9.30;;
67074;SDS011;53990;50.334;18.640;2023-03-19T10:25:49;11.40;;;8.30;;
67074;SDS011;53990;50.334;18.640;2023-03-19T10:28:18;14.80;;;9.90;;
67074;SDS011;53990;50.334;18.640;2023-03-19T10:30:54;13.10;;;9.20;;
67074;SDS011;53990;50.334;18.640;2023-03-19T10:33:24;16.00;;;9.20;;
67074;SDS011;53990;50.334;18.640;2023-03-19T10:36:04;34.70;;;21.10;;
67074;SDS011;53990;50.334;18.640;2023-03-19T10:38:40;15.00;;;9.40;;
67074;SDS011;53990;50.334;18.640;2023-03-19T10:43:57;13.90;;;9.10;;
67074;SDS011;53990;50.334;18.640;2023-03-19T10:46:26;13.00;;;9.40;;
67074;SDS011;53990;50.334;18.640;2023-03-19T10:48:53;13.90;;;8.90;;
67074;SDS011;53990;50.334;18.640;2023-03-19T10:51:23;15.30;;;8.70;;
67074;SDS011;53990;50.334;18.640;2023-03-19T10:53:53;12.50;;;8.80;;
67074;SDS011;53990;50.334;18.640;2023-03-19T10:56:24;14.20;;;9.20;;
67074;SDS011;53990;50.334;18.640;2023-03-19T11:01:26;12.80;;;9.00;;
67074;SDS011;53990;50.334;18.640;2023-03-19T11:03:56;11.90;;;9.10;;
67074;SDS011;53990;50.334;18.640;2023-03-19T11:11:44;13.70;;;9.20;;
67074;SDS011;53990;50.334;18.640;2023-03-19T11:14:15;14.20;;;10.10;;
67074;SDS011;53990;50.334;18.640;2023-03-19T11:17:15;11.50;;;8.80;;
67074;SDS011;53990;50.334;18.640;2023-03-19T11:19:52;13.80;;;9.20;;
67074;SDS011;53990;50.334;18.640;2023-03-19T11:22:40;12.70;;;8.60;;
67074;SDS011;53990;50.334;18.640;2023-03-19T11:25:40;12.00;;;9.30;;
67074;SDS011;53990;50.334;18.640;2023-03-19T11:28:12;13.00;;;9.30;;
67074;SDS011;53990;50.334;18.640;2023-03-19T11:35:50;12.70;;;8.70;;
67074;SDS011;53990;50.334;18.640;2023-03-19T11:38:43;15.60;;;11.00;;
67074;SDS011;53990;50.334;18.640;2023-03-19T11:41:28;13.90;;;9.80;;
67074;SDS011;53990;50.334;18.640;2023-03-19T11:46:44;14.90;;;11.90;;
67074;SDS011;53990;50.334;18.640;2023-03-19T11:52:03;10.60;;;9.40;;
67074;SDS011;53990;50.334;18.640;2023-03-19T12:08:38;10.10;;;8.80;;
67074;SDS011;53990;50.334;18.640;2023-03-19T12:11:26;16.00;;;12.70;;
67074;SDS011;53990;50.334;18.640;2023-03-19T12:14:23;11.30;;;8.70;;
67074;SDS011;53990;50.334;18.640;2023-03-19T12:17:06;11.60;;;8.40;;
67074;SDS011;53990;50.334;18.640;2023-03-19T12:25:17;13.10;;;8.90;;
67074;SDS011;53990;50.334;18.640;2023-03-19T12:27:54;10.70;;;9.00;;
67074;SDS011;53990;50.334;18.640;2023-03-19T12:35:39;11.20;;;9.50;;
67074;SDS011;53990;50.334;18.640;2023-03-19T12:40:56;10.90;;;8.70;;
67074;SDS011;53990;50.334;18.640;2023-03-19T12:43:28;12.70;;;9.60;;
67074;SDS011;53990;50.334;18.640;2023-03-19T12:46:11;11.10;;;8.70;;
67074;SDS011;53990;50.334;18.640;2023-03-19T12:48:47;10.40;;;9.10;;
67074;SDS011;53990;50.334;18.640;2023-03-19T12:51:19;12.70;;;9.40;;
67074;SDS011;53990;50.334;18.640;2023-03-19T12:54:07;11.80;;;8.80;;
67074;SDS011;53990;50.334;18.640;2023-03-19T12:56:50;12.90;;;9.20;;
67074;SDS011;53990;50.334;18.640;2023-03-19T12:59:43;10.70;;;9.30;;
67074;SDS011;53990;50.334;18.640;2023-03-19T13:10:21;9.60;;;8.60;;
67074;SDS011;53990;50.334;18.640;2023-03-19T13:12:50;10.60;;;9.10;;
67074;SDS011;53990;50.334;18.640;2023-03-19T13:15:34;12.10;;;8.70;;
67074;SDS011;53990;50.334;18.640;2023-03-19T13:21:08;11.10;;;9.30;;
67074;SDS011;53990;50.334;18.640;2023-03-19T13:23:41;9.30;;;8.20;;
67074;SDS011;53990;50.334;18.640;2023-03-19T13:26:11;8.50;;;7.60;;
67074;SDS011;53990;50.334;18.640;2023-03-19T13:31:46;9.00;;;7.70;;
67074;SDS011;53990;50.334;18.640;2023-03-19T13:36:53;9.20;;;7.30;;
67074;SDS011;53990;50.334;18.640;2023-03-19T13:39:24;8.90;;;7.90;;
67074;SDS011;53990;50.334;18.640;2023-03-19T13:44:51;8.40;;;7.50;;
67074;SDS011;53990;50.334;18.640;2023-03-19T13:52:46;9.20;;;8.20;;
67074;SDS011;53990;50.334;18.640;2023-03-19T13:57:56;9.50;;;8.10;;
67074;SDS011;53990;50.334;18.640;2023-03-19T14:05:49;11.10;;;8.50;;
67074;SDS011;53990;50.334;18.640;2023-03-19T14:08:20;10.00;;;8.40;;
67074;SDS011;53990;50.334;18.640;2023-03-19T14:10:51;10.70;;;7.90;;
67074;SDS011;53990;50.334;18.640;2023-03-19T14:13:32;10.70;;;8.20;;
67074;SDS011;53990;50.334;18.640;2023-03-19T14:16:05;9.10;;;7.60;;
67074;SDS011;53990;50.334;18.640;2023-03-19T14:18:38;12.60;;;9.00;;
67074;SDS011;53990;50.334;18.640;2023-03-19T14:21:09;11.60;;;9.20;;
67074;SDS011;53990;50.334;18.640;2023-03-19T14:23:39;10.90;;;8.80;;
67074;SDS011;53990;50.334;18.640;2023-03-19T14:26:22;10.30;;;7.80;;
67074;SDS011;53990;50.334;18.640;2023-03-19T14:31:51;10.20;;;8.40;;
67074;SDS011;53990;50.334;18.640;2023-03-19T14:39:44;10.60;;;8.20;;
67074;SDS011;53990;50.334;18.640;2023-03-19T14:42:29;8.20;;;7.10;;
67074;SDS011;53990;50.334;18.640;2023-03-19T14:55:41;9.60;;;7.80;;
67074;SDS011;53990;50.334;18.640;2023-03-19T14:58:12;11.00;;;8.80;;
67074;SDS011;53990;50.334;18.640;2023-03-19T15:00:45;10.00;;;7.60;;
67074;SDS011;53990;50.334;18.640;2023-03-19T15:05:49;11.70;;;8.40;;
67074;SDS011;53990;50.334;18.640;2023-03-19T15:08:22;11.00;;;7.60;;
67074;SDS011;53990;50.334;18.640;2023-03-19T15:11:09;9.60;;;7.80;;
67074;SDS011;53990;50.334;18.640;2023-03-19T15:16:48;11.00;;;7.80;;
67074;SDS011;53990;50.334;18.640;2023-03-19T15:19:23;10.10;;;7.10;;
67074;SDS011;53990;50.334;18.640;2023-03-19T15:22:45;10.20;;;7.60;;
67074;SDS011;53990;50.334;18.640;2023-03-19T15:24:52;9.90;;;7.10;;
67074;SDS011;53990;50.334;18.640;2023-03-19T15:27:24;10.60;;;8.10;;
67074;SDS011;53990;50.334;18.640;2023-03-19T15:29:53;9.70;;;7.50;;
67074;SDS011;53990;50.334;18.640;2023-03-19T15:32:39;10.60;;;7.70;;
67074;SDS011;53990;50.334;18.640;2023-03-19T15:35:08;11.80;;;7.70;;
67074;SDS011;53990;50.334;18.640;2023-03-19T15:37:38;10.60;;;7.10;;
67074;SDS011;53990;50.334;18.640;2023-03-19T15:40:11;8.40;;;7.30;;
67074;SDS011;53990;50.334;18.640;2023-03-19T15:42:42;8.60;;;7.30;;
67074;SDS011;53990;50.334;18.640;2023-03-19T15:45:14;12.10;;;8.40;;
67074;SDS011;53990;50.334;18.640;2023-03-19T15:50:22;10.40;;;7.70;;
67074;SDS011;53990;50.334;18.640;2023-03-19T15:53:03;9.30;;;7.00;;
67074;SDS011;53990;50.334;18.640;2023-03-19T15:55:34;11.50;;;7.20;;
67074;SDS011;53990;50.334;18.640;2023-03-19T15:58:06;8.50;;;6.60;;
67074;SDS011;53990;50.334;18.640;2023-03-19T16:00:36;10.70;;;7.80;;
67074;SDS011;53990;50.334;18.640;2023-03-19T16:03:04;13.50;;;7.60;;
67074;SDS011;53990;50.334;18.640;2023-03-19T16:05:33;12.70;;;7.80;;
67074;SDS011;53990;50.334;18.640;2023-03-19T16:08:07;13.20;;;7.80;;
67074;SDS011;53990;50.334;18.640;2023-03-19T16:10:41;14.50;;;8.60;;
67074;SDS011;53990;50.334;18.640;2023-03-19T16:13:30;14.90;;;9.30;;
67074;SDS011;53990;50.334;18.640;2023-03-19T16:19:00;15.20;;;8.70;;
67074;SDS011;53990;50.334;18.640;2023-03-19T16:21:39;14.60;;;8.80;;
67074;SDS011;53990;50.334;18.640;2023-03-19T16:26:41;19.70;;;12.20;;
67074;SDS011;53990;50.334;18.640;2023-03-19T16:34:42;17.80;;;9.90;;
67074;SDS011;53990;50.334;18.640;2023-03-19T16:37:38;19.60;;;11.00;;
67074;SDS011;53990;50.334;18.640;2023-03-19T16:47:44;17.70;;;10.20;;
67074;SDS011;53990;50.334;18.640;2023-03-19T16:50:13;18.70;;;10.70;;
67074;SDS011;53990;50.334;18.640;2023-03-19T16:52:42;15.80;;;10.00;;
67074;SDS011;53990;50.334;18.640;2023-03-19T16:55:25;16.00;;;10.30;;
67074;SDS011;53990;50.334;18.640;2023-03-19T16:57:56;19.30;;;13.00;;
67074;SDS011;53990;50.334;18.640;2023-03-19T17:00:25;18.40;;;11.60;;
67074;SDS011;53990;50.334;18.640;2023-03-19T17:02:52;19.00;;;11.90;;